sensor_id;sensor_type;location;lat;lon;timestamp;temperature;humidity
35244;DHT22;37916;52.160;21.066;2022-08-01T00:09:47;16.20;92.60
35244;DHT22;37916;52.160;21.066;2022-08-01T00:19:48;16.20;92.50
35244;DHT22;37916;52.160;21.066;2022-08-01T00:29:48;16.20;92.20
35244;DHT22;37916;52.160;21.066;2022-08-01T00:39:49;16.20;91.90
35244;DHT22;37916;52.160;21.066;2022-08-01T00:49:50;16.20;91.90
35244;DHT22;37916;52.160;21.066;2022-08-01T00:59:52;16.10;91.90
35244;DHT22;37916;52.160;21.066;2022-08-01T01:20:12;16.00;91.80
35244;DHT22;37916;52.160;21.066;2022-08-01T01:30:13;15.90;92.00
35244;DHT22;37916;52.160;21.066;2022-08-01T01:40:17;15.90;92.20
35244;DHT22;37916;52.160;21.066;2022-08-01T01:50:21;15.90;92.10
35244;DHT22;37916;52.160;21.066;2022-08-01T02:00:22;15.80;92.10
35244;DHT22;37916;52.160;21.066;2022-08-01T02:10:24;15.70;91.70
35244;DHT22;37916;52.160;21.066;2022-08-01T02:20:28;15.60;91.50
35244;DHT22;37916;52.160;21.066;2022-08-01T02:30:33;15.40;91.70
35244;DHT22;37916;52.160;21.066;2022-08-01T02:40:36;15.20;91.60
35244;DHT22;37916;52.160;21.066;2022-08-01T02:50:41;14.90;91.60
35244;DHT22;37916;52.160;21.066;2022-08-01T03:00:44;14.70;91.60
35244;DHT22;37916;52.160;21.066;2022-08-01T03:10:46;14.50;91.70
35244;DHT22;37916;52.160;21.066;2022-08-01T03:20:49;14.30;91.70
35244;DHT22;37916;52.160;21.066;2022-08-01T03:30:51;14.20;91.80
35244;DHT22;37916;52.160;21.066;2022-08-01T03:40:55;14.20;92.20
35244;DHT22;37916;52.160;21.066;2022-08-01T03:50:58;14.30;92.90
35244;DHT22;37916;52.160;21.066;2022-08-01T04:00:59;14.70;93.40
35244;DHT22;37916;52.160;21.066;2022-08-01T04:11:00;14.80;93.40
35244;DHT22;37916;52.160;21.066;2022-08-01T04:21:01;15.10;93.70
35244;DHT22;37916;52.160;21.066;2022-08-01T04:31:07;15.40;93.90
35244;DHT22;37916;52.160;21.066;2022-08-01T04:41:13;15.70;94.10
35244;DHT22;37916;52.160;21.066;2022-08-01T04:51:15;15.90;94.10
35244;DHT22;37916;52.160;21.066;2022-08-01T05:01:17;16.30;93.80
35244;DHT22;37916;52.160;21.066;2022-08-01T05:11:18;16.70;91.80
35244;DHT22;37916;52.160;21.066;2022-08-01T05:21:18;17.00;90.50
35244;DHT22;37916;52.160;21.066;2022-08-01T05:31:19;16.60;90.10
35244;DHT22;37916;52.160;21.066;2022-08-01T05:41:20;16.30;90.70
35244;DHT22;37916;52.160;21.066;2022-08-01T05:51:21;16.60;92.30
35244;DHT22;37916;52.160;21.066;2022-08-01T06:01:21;18.30;89.20
35244;DHT22;37916;52.160;21.066;2022-08-01T06:11:22;20.10;87.10
35244;DHT22;37916;52.160;21.066;2022-08-01T06:21:26;21.70;84.90
35244;DHT22;37916;52.160;21.066;2022-08-01T06:31:27;23.30;83.50
35244;DHT22;37916;52.160;21.066;2022-08-01T06:41:28;24.60;80.70
35244;DHT22;37916;52.160;21.066;2022-08-01T06:51:31;25.80;79.60
35244;DHT22;37916;52.160;21.066;2022-08-01T07:01:40;26.70;78.60
35244;DHT22;37916;52.160;21.066;2022-08-01T07:12:07;27.50;75.80
35244;DHT22;37916;52.160;21.066;2022-08-01T07:22:08;28.00;69.70
35244;DHT22;37916;52.160;21.066;2022-08-01T07:32:08;28.30;77.90
35244;DHT22;37916;52.160;21.066;2022-08-01T07:42:09;28.70;60.40
35244;DHT22;37916;52.160;21.066;2022-08-01T08:02:32;29.10;73.10
35244;DHT22;37916;52.160;21.066;2022-08-01T08:12:40;29.80;76.90
35244;DHT22;37916;52.160;21.066;2022-08-01T08:22:40;30.20;66.10
35244;DHT22;37916;52.160;21.066;2022-08-01T08:32:41;29.30;70.40
35244;DHT22;37916;52.160;21.066;2022-08-01T08:42:45;29.40;71.10
35244;DHT22;37916;52.160;21.066;2022-08-01T08:52:46;30.00;66.90
35244;DHT22;37916;52.160;21.066;2022-08-01T09:02:48;29.20;67.40
35244;DHT22;37916;52.160;21.066;2022-08-01T09:13:22;27.90;64.90
35244;DHT22;37916;52.160;21.066;2022-08-01T09:23:36;26.80;61.90
35244;DHT22;37916;52.160;21.066;2022-08-01T09:33:54;25.80;63.20
35244;DHT22;37916;52.160;21.066;2022-08-01T09:43:55;25.20;63.20
35244;DHT22;37916;52.160;21.066;2022-08-01T09:53:56;24.50;64.10
35244;DHT22;37916;52.160;21.066;2022-08-01T10:14:12;24.20;62.30
35244;DHT22;37916;52.160;21.066;2022-08-01T10:24:15;23.90;65.40
35244;DHT22;37916;52.160;21.066;2022-08-01T10:34:16;23.80;65.00
35244;DHT22;37916;52.160;21.066;2022-08-01T10:44:20;23.80;64.70
35244;DHT22;37916;52.160;21.066;2022-08-01T10:54:24;23.70;65.00
35244;DHT22;37916;52.160;21.066;2022-08-01T11:24:59;24.20;62.40
35244;DHT22;37916;52.160;21.066;2022-08-01T11:34:59;24.30;61.30
35244;DHT22;37916;52.160;21.066;2022-08-01T11:45:01;24.60;62.30
35244;DHT22;37916;52.160;21.066;2022-08-01T12:05:07;24.00;55.00
35244;DHT22;37916;52.160;21.066;2022-08-01T12:15:09;24.20;60.30
35244;DHT22;37916;52.160;21.066;2022-08-01T12:25:17;24.40;60.50
35244;DHT22;37916;52.160;21.066;2022-08-01T12:35:22;24.50;58.40
35244;DHT22;37916;52.160;21.066;2022-08-01T12:45:40;25.00;58.90
35244;DHT22;37916;52.160;21.066;2022-08-01T12:55:48;25.00;54.40
35244;DHT22;37916;52.160;21.066;2022-08-01T13:05:51;24.70;52.10
35244;DHT22;37916;52.160;21.066;2022-08-01T13:16:03;24.30;53.30
35244;DHT22;37916;52.160;21.066;2022-08-01T13:26:04;24.60;58.60
35244;DHT22;37916;52.160;21.066;2022-08-01T13:36:08;24.80;58.00
35244;DHT22;37916;52.160;21.066;2022-08-01T13:46:11;24.70;58.10
35244;DHT22;37916;52.160;21.066;2022-08-01T13:56:12;25.00;57.60
35244;DHT22;37916;52.160;21.066;2022-08-01T14:06:13;25.10;57.80
35244;DHT22;37916;52.160;21.066;2022-08-01T14:16:16;24.80;56.80
35244;DHT22;37916;52.160;21.066;2022-08-01T14:26:17;25.10;57.60
35244;DHT22;37916;52.160;21.066;2022-08-01T14:36:18;25.20;55.50
35244;DHT22;37916;52.160;21.066;2022-08-01T14:46:21;25.00;56.60
35244;DHT22;37916;52.160;21.066;2022-08-01T14:56:25;24.80;54.70
35244;DHT22;37916;52.160;21.066;2022-08-01T15:06:25;25.10;57.20
35244;DHT22;37916;52.160;21.066;2022-08-01T15:16:28;25.50;52.00
35244;DHT22;37916;52.160;21.066;2022-08-01T15:26:29;25.70;52.60
35244;DHT22;37916;52.160;21.066;2022-08-01T15:36:30;25.70;48.10
35244;DHT22;37916;52.160;21.066;2022-08-01T15:46:30;25.70;51.60
35244;DHT22;37916;52.160;21.066;2022-08-01T15:56:32;25.80;52.10
35244;DHT22;37916;52.160;21.066;2022-08-01T16:06:34;26.20;53.50
35244;DHT22;37916;52.160;21.066;2022-08-01T16:16:35;26.00;55.00
35244;DHT22;37916;52.160;21.066;2022-08-01T16:26:35;25.30;56.30
35244;DHT22;37916;52.160;21.066;2022-08-01T16:36:36;25.40;57.00
35244;DHT22;37916;52.160;21.066;2022-08-01T16:46:37;25.40;58.40
35244;DHT22;37916;52.160;21.066;2022-08-01T16:56:37;25.30;58.90
35244;DHT22;37916;52.160;21.066;2022-08-01T17:06:38;24.80;57.40
35244;DHT22;37916;52.160;21.066;2022-08-01T17:16:38;24.80;58.20
35244;DHT22;37916;52.160;21.066;2022-08-01T17:26:39;24.70;59.40
35244;DHT22;37916;52.160;21.066;2022-08-01T17:36:40;24.40;60.70
35244;DHT22;37916;52.160;21.066;2022-08-01T17:46:40;24.10;61.50
35244;DHT22;37916;52.160;21.066;2022-08-01T17:56:41;23.90;64.50
35244;DHT22;37916;52.160;21.066;2022-08-01T18:06:42;23.80;64.80
35244;DHT22;37916;52.160;21.066;2022-08-01T18:16:42;23.60;65.70
35244;DHT22;37916;52.160;21.066;2022-08-01T18:26:43;23.30;65.40
35244;DHT22;37916;52.160;21.066;2022-08-01T18:36:44;23.10;66.90
35244;DHT22;37916;52.160;21.066;2022-08-01T18:46:44;22.90;68.90
35244;DHT22;37916;52.160;21.066;2022-08-01T18:56:45;22.80;67.30
35244;DHT22;37916;52.160;21.066;2022-08-01T19:06:46;22.70;67.00
35244;DHT22;37916;52.160;21.066;2022-08-01T19:16:50;22.50;69.30
35244;DHT22;37916;52.160;21.066;2022-08-01T19:26:58;22.40;69.40
35244;DHT22;37916;52.160;21.066;2022-08-01T19:37:00;22.30;69.60
35244;DHT22;37916;52.160;21.066;2022-08-01T19:47:00;22.20;69.10
35244;DHT22;37916;52.160;21.066;2022-08-01T19:57:03;22.10;71.20
35244;DHT22;37916;52.160;21.066;2022-08-01T20:07:07;22.00;70.50
35244;DHT22;37916;52.160;21.066;2022-08-01T20:17:08;21.90;72.80
35244;DHT22;37916;52.160;21.066;2022-08-01T20:27:12;21.90;72.90
35244;DHT22;37916;52.160;21.066;2022-08-01T20:37:16;21.80;73.90
35244;DHT22;37916;52.160;21.066;2022-08-01T20:47:19;21.80;74.60
35244;DHT22;37916;52.160;21.066;2022-08-01T20:57:22;21.70;75.30
35244;DHT22;37916;52.160;21.066;2022-08-01T21:07:27;21.60;75.30
35244;DHT22;37916;52.160;21.066;2022-08-01T21:17:42;21.50;76.70
35244;DHT22;37916;52.160;21.066;2022-08-01T21:27:43;21.40;76.90
35244;DHT22;37916;52.160;21.066;2022-08-01T21:37:46;21.40;76.00
35244;DHT22;37916;52.160;21.066;2022-08-01T21:47:49;21.30;75.80
35244;DHT22;37916;52.160;21.066;2022-08-01T22:08:00;21.20;76.80
35244;DHT22;37916;52.160;21.066;2022-08-01T22:18:03;21.20;77.50
35244;DHT22;37916;52.160;21.066;2022-08-01T22:28:04;21.00;76.70
35244;DHT22;37916;52.160;21.066;2022-08-01T22:38:05;20.90;76.50
35244;DHT22;37916;52.160;21.066;2022-08-01T22:48:18;20.90;77.10
35244;DHT22;37916;52.160;21.066;2022-08-01T22:58:21;20.90;77.80
35244;DHT22;37916;52.160;21.066;2022-08-01T23:08:22;20.80;77.20
35244;DHT22;37916;52.160;21.066;2022-08-01T23:18:24;20.80;77.20
35244;DHT22;37916;52.160;21.066;2022-08-01T23:28:26;20.70;78.10
35244;DHT22;37916;52.160;21.066;2022-08-01T23:38:27;20.70;79.20
35244;DHT22;37916;52.160;21.066;2022-08-01T23:48:27;20.60;79.40
35244;DHT22;37916;52.160;21.066;2022-08-01T23:58:28;20.50;79.40
